sensor_id;sensor_type;location;lat;lon;timestamp;P1;durP1;ratioP1;P2;durP2;ratioP2
70727;SDS011;58314;47.722;17.652;2022-08-24T00:01:23;11.45;;;10.00;;
70727;SDS011;58314;47.722;17.652;2022-08-24T00:04:24;10.35;;;9.38;;
70727;SDS011;58314;47.722;17.652;2022-08-24T00:07:25;11.05;;;9.95;;
70727;SDS011;58314;47.722;17.652;2022-08-24T00:10:26;12.13;;;10.95;;
70727;SDS011;58314;47.722;17.652;2022-08-24T00:13:27;10.50;;;9.50;;
70727;SDS011;58314;47.722;17.652;2022-08-24T00:16:28;12.13;;;10.93;;
70727;SDS011;58314;47.722;17.652;2022-08-24T00:19:28;10.68;;;9.68;;
70727;SDS011;58314;47.722;17.652;2022-08-24T00:22:29;12.10;;;10.98;;
70727;SDS011;58314;47.722;17.652;2022-08-24T00:25:30;12.98;;;10.73;;
70727;SDS011;58314;47.722;17.652;2022-08-24T00:28:31;11.95;;;10.75;;
70727;SDS011;58314;47.722;17.652;2022-08-24T00:31:32;11.25;;;10.25;;
70727;SDS011;58314;47.722;17.652;2022-08-24T00:34:33;10.98;;;9.88;;
70727;SDS011;58314;47.722;17.652;2022-08-24T00:37:35;11.82;;;10.73;;
70727;SDS011;58314;47.722;17.652;2022-08-24T00:40:37;11.43;;;10.38;;
70727;SDS011;58314;47.722;17.652;2022-08-24T00:43:49;12.55;;;11.35;;
70727;SDS011;58314;47.722;17.652;2022-08-24T00:47:16;12.50;;;11.30;;
70727;SDS011;58314;47.722;17.652;2022-08-24T00:50:28;12.57;;;11.30;;
70727;SDS011;58314;47.722;17.652;2022-08-24T00:53:36;12.70;;;11.50;;
70727;SDS011;58314;47.722;17.652;2022-08-24T00:56:41;12.43;;;11.13;;
70727;SDS011;58314;47.722;17.652;2022-08-24T00:59:51;11.25;;;10.18;;
70727;SDS011;58314;47.722;17.652;2022-08-24T01:02:56;12.85;;;11.65;;
70727;SDS011;58314;47.722;17.652;2022-08-24T01:06:03;12.95;;;11.75;;
70727;SDS011;58314;47.722;17.652;2022-08-24T01:09:04;13.93;;;12.50;;
70727;SDS011;58314;47.722;17.652;2022-08-24T01:12:05;12.75;;;11.48;;
70727;SDS011;58314;47.722;17.652;2022-08-24T01:15:07;12.57;;;11.27;;
70727;SDS011;58314;47.722;17.652;2022-08-24T01:18:10;13.18;;;11.88;;
70727;SDS011;58314;47.722;17.652;2022-08-24T01:21:36;14.20;;;12.77;;
70727;SDS011;58314;47.722;17.652;2022-08-24T01:24:43;12.93;;;11.57;;
70727;SDS011;58314;47.722;17.652;2022-08-24T01:27:44;14.05;;;12.55;;
70727;SDS011;58314;47.722;17.652;2022-08-24T01:30:47;14.38;;;12.90;;
70727;SDS011;58314;47.722;17.652;2022-08-24T01:33:49;13.43;;;12.02;;
70727;SDS011;58314;47.722;17.652;2022-08-24T01:36:52;14.15;;;12.75;;
70727;SDS011;58314;47.722;17.652;2022-08-24T01:40:00;13.82;;;12.43;;
70727;SDS011;58314;47.722;17.652;2022-08-24T01:46:06;15.00;;;13.45;;
70727;SDS011;58314;47.722;17.652;2022-08-24T01:49:08;14.93;;;13.43;;
70727;SDS011;58314;47.722;17.652;2022-08-24T01:52:10;16.48;;;14.43;;
70727;SDS011;58314;47.722;17.652;2022-08-24T01:55:14;15.75;;;14.15;;
70727;SDS011;58314;47.722;17.652;2022-08-24T01:58:16;14.88;;;13.38;;
70727;SDS011;58314;47.722;17.652;2022-08-24T02:01:16;14.68;;;13.18;;
70727;SDS011;58314;47.722;17.652;2022-08-24T02:04:18;13.05;;;11.73;;
70727;SDS011;58314;47.722;17.652;2022-08-24T02:07:19;14.93;;;13.30;;
70727;SDS011;58314;47.722;17.652;2022-08-24T02:10:20;16.13;;;13.88;;
70727;SDS011;58314;47.722;17.652;2022-08-24T02:13:20;14.45;;;12.95;;
70727;SDS011;58314;47.722;17.652;2022-08-24T02:16:21;14.90;;;13.38;;
70727;SDS011;58314;47.722;17.652;2022-08-24T02:19:22;14.95;;;13.35;;
70727;SDS011;58314;47.722;17.652;2022-08-24T02:22:24;14.98;;;12.98;;
70727;SDS011;58314;47.722;17.652;2022-08-24T02:25:25;15.45;;;13.85;;
70727;SDS011;58314;47.722;17.652;2022-08-24T02:28:29;16.02;;;14.38;;
70727;SDS011;58314;47.722;17.652;2022-08-24T02:31:30;16.05;;;13.98;;
70727;SDS011;58314;47.722;17.652;2022-08-24T02:34:31;15.57;;;14.00;;
70727;SDS011;58314;47.722;17.652;2022-08-24T02:37:31;16.42;;;14.65;;
70727;SDS011;58314;47.722;17.652;2022-08-24T02:40:32;15.80;;;14.05;;
70727;SDS011;58314;47.722;17.652;2022-08-24T02:43:33;16.58;;;14.82;;
70727;SDS011;58314;47.722;17.652;2022-08-24T02:46:33;18.63;;;15.27;;
70727;SDS011;58314;47.722;17.652;2022-08-24T02:49:34;16.15;;;14.43;;
70727;SDS011;58314;47.722;17.652;2022-08-24T02:52:36;17.35;;;15.07;;
70727;SDS011;58314;47.722;17.652;2022-08-24T02:55:38;17.25;;;14.50;;
70727;SDS011;58314;47.722;17.652;2022-08-24T02:58:40;17.95;;;16.02;;
70727;SDS011;58314;47.722;17.652;2022-08-24T03:01:42;18.23;;;15.27;;
70727;SDS011;58314;47.722;17.652;2022-08-24T03:04:43;17.88;;;15.98;;
70727;SDS011;58314;47.722;17.652;2022-08-24T03:07:44;17.10;;;15.30;;
70727;SDS011;58314;47.722;17.652;2022-08-24T03:10:45;17.38;;;15.50;;
70727;SDS011;58314;47.722;17.652;2022-08-24T03:13:45;20.20;;;16.83;;
70727;SDS011;58314;47.722;17.652;2022-08-24T03:16:46;18.95;;;15.82;;
70727;SDS011;58314;47.722;17.652;2022-08-24T03:19:46;19.77;;;16.08;;
70727;SDS011;58314;47.722;17.652;2022-08-24T03:22:47;19.58;;;16.17;;
70727;SDS011;58314;47.722;17.652;2022-08-24T03:25:48;18.15;;;15.90;;
70727;SDS011;58314;47.722;17.652;2022-08-24T03:28:51;19.33;;;17.00;;
70727;SDS011;58314;47.722;17.652;2022-08-24T03:31:52;20.77;;;17.25;;
70727;SDS011;58314;47.722;17.652;2022-08-24T03:34:53;21.13;;;17.13;;
70727;SDS011;58314;47.722;17.652;2022-08-24T03:37:55;20.65;;;17.30;;
70727;SDS011;58314;47.722;17.652;2022-08-24T03:40:55;19.25;;;17.15;;
70727;SDS011;58314;47.722;17.652;2022-08-24T03:43:56;20.83;;;16.75;;
70727;SDS011;58314;47.722;17.652;2022-08-24T03:46:57;20.45;;;17.02;;
70727;SDS011;58314;47.722;17.652;2022-08-24T03:49:57;21.45;;;18.13;;
70727;SDS011;58314;47.722;17.652;2022-08-24T03:52:58;21.25;;;18.67;;
70727;SDS011;58314;47.722;17.652;2022-08-24T03:55:59;26.15;;;19.45;;
70727;SDS011;58314;47.722;17.652;2022-08-24T03:58:59;22.52;;;18.27;;
70727;SDS011;58314;47.722;17.652;2022-08-24T04:02:00;21.13;;;18.05;;
70727;SDS011;58314;47.722;17.652;2022-08-24T04:05:01;20.73;;;17.90;;
70727;SDS011;58314;47.722;17.652;2022-08-24T04:08:03;23.40;;;18.60;;
70727;SDS011;58314;47.722;17.652;2022-08-24T04:11:04;22.63;;;17.98;;
70727;SDS011;58314;47.722;17.652;2022-08-24T04:14:08;26.23;;;19.25;;
70727;SDS011;58314;47.722;17.652;2022-08-24T04:17:10;24.40;;;19.45;;
70727;SDS011;58314;47.722;17.652;2022-08-24T04:20:11;22.73;;;19.08;;
70727;SDS011;58314;47.722;17.652;2022-08-24T04:23:12;25.98;;;19.83;;
70727;SDS011;58314;47.722;17.652;2022-08-24T04:26:15;23.77;;;19.20;;
70727;SDS011;58314;47.722;17.652;2022-08-24T04:29:17;22.55;;;19.00;;
70727;SDS011;58314;47.722;17.652;2022-08-24T04:32:18;24.20;;;19.48;;
70727;SDS011;58314;47.722;17.652;2022-08-24T04:35:19;22.88;;;18.92;;
70727;SDS011;58314;47.722;17.652;2022-08-24T04:38:19;25.17;;;19.63;;
70727;SDS011;58314;47.722;17.652;2022-08-24T04:41:21;26.95;;;20.77;;
70727;SDS011;58314;47.722;17.652;2022-08-24T04:44:21;23.92;;;19.05;;
70727;SDS011;58314;47.722;17.652;2022-08-24T04:47:22;25.90;;;19.35;;
70727;SDS011;58314;47.722;17.652;2022-08-24T04:50:23;23.15;;;19.05;;
70727;SDS011;58314;47.722;17.652;2022-08-24T04:53:24;20.65;;;18.38;;
70727;SDS011;58314;47.722;17.652;2022-08-24T04:56:24;22.45;;;19.08;;
70727;SDS011;58314;47.722;17.652;2022-08-24T04:59:26;21.70;;;18.13;;
70727;SDS011;58314;47.722;17.652;2022-08-24T05:02:26;22.00;;;17.60;;
70727;SDS011;58314;47.722;17.652;2022-08-24T05:05:27;23.77;;;18.52;;
70727;SDS011;58314;47.722;17.652;2022-08-24T05:08:28;21.08;;;18.77;;
70727;SDS011;58314;47.722;17.652;2022-08-24T05:11:28;19.10;;;16.75;;
70727;SDS011;58314;47.722;17.652;2022-08-24T05:14:30;20.35;;;17.17;;
70727;SDS011;58314;47.722;17.652;2022-08-24T05:17:30;18.42;;;16.60;;
70727;SDS011;58314;47.722;17.652;2022-08-24T05:20:31;18.20;;;16.30;;
70727;SDS011;58314;47.722;17.652;2022-08-24T05:23:32;17.27;;;15.57;;
70727;SDS011;58314;47.722;17.652;2022-08-24T05:26:34;17.80;;;15.93;;
70727;SDS011;58314;47.722;17.652;2022-08-24T05:29:34;16.52;;;14.90;;
70727;SDS011;58314;47.722;17.652;2022-08-24T05:32:36;18.50;;;16.50;;
70727;SDS011;58314;47.722;17.652;2022-08-24T05:35:38;17.42;;;15.73;;
70727;SDS011;58314;47.722;17.652;2022-08-24T05:38:39;17.02;;;15.27;;
70727;SDS011;58314;47.722;17.652;2022-08-24T05:41:40;16.98;;;15.32;;
70727;SDS011;58314;47.722;17.652;2022-08-24T05:44:42;16.08;;;14.52;;
70727;SDS011;58314;47.722;17.652;2022-08-24T05:47:44;15.77;;;14.20;;
70727;SDS011;58314;47.722;17.652;2022-08-24T05:50:50;14.55;;;13.15;;
70727;SDS011;58314;47.722;17.652;2022-08-24T05:53:55;15.02;;;13.52;;
70727;SDS011;58314;47.722;17.652;2022-08-24T05:56:56;12.60;;;11.40;;
70727;SDS011;58314;47.722;17.652;2022-08-24T06:00:01;13.65;;;12.25;;
70727;SDS011;58314;47.722;17.652;2022-08-24T06:03:03;13.05;;;11.75;;
70727;SDS011;58314;47.722;17.652;2022-08-24T06:06:05;13.02;;;11.73;;
70727;SDS011;58314;47.722;17.652;2022-08-24T06:09:09;14.45;;;12.07;;
70727;SDS011;58314;47.722;17.652;2022-08-24T06:12:10;14.02;;;11.35;;
70727;SDS011;58314;47.722;17.652;2022-08-24T06:15:11;16.13;;;12.05;;
70727;SDS011;58314;47.722;17.652;2022-08-24T06:18:12;12.65;;;11.43;;
70727;SDS011;58314;47.722;17.652;2022-08-24T06:21:14;12.32;;;11.02;;
70727;SDS011;58314;47.722;17.652;2022-08-24T06:24:16;12.50;;;11.20;;
70727;SDS011;58314;47.722;17.652;2022-08-24T06:27:18;11.40;;;10.25;;
70727;SDS011;58314;47.722;17.652;2022-08-24T06:30:21;11.65;;;10.45;;
70727;SDS011;58314;47.722;17.652;2022-08-24T06:33:23;12.23;;;10.88;;
70727;SDS011;58314;47.722;17.652;2022-08-24T06:36:25;10.65;;;9.65;;
70727;SDS011;58314;47.722;17.652;2022-08-24T06:39:26;12.15;;;9.57;;
70727;SDS011;58314;47.722;17.652;2022-08-24T06:42:26;11.00;;;9.52;;
70727;SDS011;58314;47.722;17.652;2022-08-24T06:45:30;11.15;;;10.05;;
70727;SDS011;58314;47.722;17.652;2022-08-24T06:48:32;10.32;;;9.23;;
70727;SDS011;58314;47.722;17.652;2022-08-24T06:51:32;10.55;;;9.45;;
70727;SDS011;58314;47.722;17.652;2022-08-24T06:54:33;10.23;;;9.20;;
70727;SDS011;58314;47.722;17.652;2022-08-24T06:57:34;10.63;;;9.52;;
70727;SDS011;58314;47.722;17.652;2022-08-24T07:00:34;12.48;;;8.98;;
70727;SDS011;58314;47.722;17.652;2022-08-24T07:03:35;10.82;;;9.18;;
70727;SDS011;58314;47.722;17.652;2022-08-24T07:06:36;10.07;;;9.02;;
70727;SDS011;58314;47.722;17.652;2022-08-24T07:09:38;9.93;;;8.93;;
70727;SDS011;58314;47.722;17.652;2022-08-24T07:12:39;10.13;;;9.13;;
70727;SDS011;58314;47.722;17.652;2022-08-24T07:15:40;9.32;;;8.40;;
70727;SDS011;58314;47.722;17.652;2022-08-24T07:18:42;9.23;;;8.15;;
70727;SDS011;58314;47.722;17.652;2022-08-24T07:21:43;9.70;;;8.63;;
70727;SDS011;58314;47.722;17.652;2022-08-24T07:24:44;9.90;;;8.82;;
70727;SDS011;58314;47.722;17.652;2022-08-24T07:27:45;10.50;;;9.13;;
70727;SDS011;58314;47.722;17.652;2022-08-24T07:30:47;16.08;;;11.43;;
70727;SDS011;58314;47.722;17.652;2022-08-24T07:33:47;17.90;;;12.93;;
70727;SDS011;58314;47.722;17.652;2022-08-24T07:36:48;12.90;;;10.48;;
70727;SDS011;58314;47.722;17.652;2022-08-24T07:39:49;10.07;;;8.98;;
70727;SDS011;58314;47.722;17.652;2022-08-24T07:42:50;10.15;;;9.15;;
70727;SDS011;58314;47.722;17.652;2022-08-24T07:45:53;9.40;;;8.48;;
70727;SDS011;58314;47.722;17.652;2022-08-24T07:48:53;20.13;;;9.05;;
70727;SDS011;58314;47.722;17.652;2022-08-24T07:51:54;10.00;;;9.00;;
70727;SDS011;58314;47.722;17.652;2022-08-24T07:54:54;9.82;;;8.82;;
70727;SDS011;58314;47.722;17.652;2022-08-24T07:57:55;10.65;;;9.50;;
70727;SDS011;58314;47.722;17.652;2022-08-24T08:00:56;10.32;;;9.43;;
70727;SDS011;58314;47.722;17.652;2022-08-24T08:03:57;10.20;;;9.20;;
70727;SDS011;58314;47.722;17.652;2022-08-24T08:06:58;9.70;;;8.73;;
70727;SDS011;58314;47.722;17.652;2022-08-24T08:10:00;10.32;;;9.25;;
70727;SDS011;58314;47.722;17.652;2022-08-24T08:13:03;10.10;;;9.10;;
70727;SDS011;58314;47.722;17.652;2022-08-24T08:16:04;10.57;;;9.45;;
70727;SDS011;58314;47.722;17.652;2022-08-24T08:19:05;9.95;;;8.95;;
70727;SDS011;58314;47.722;17.652;2022-08-24T08:22:06;9.43;;;8.38;;
70727;SDS011;58314;47.722;17.652;2022-08-24T08:25:25;9.60;;;8.70;;
70727;SDS011;58314;47.722;17.652;2022-08-24T08:28:26;9.43;;;8.52;;
70727;SDS011;58314;47.722;17.652;2022-08-24T08:31:32;9.48;;;8.10;;
70727;SDS011;58314;47.722;17.652;2022-08-24T08:34:33;8.88;;;7.97;;
70727;SDS011;58314;47.722;17.652;2022-08-24T08:37:33;9.13;;;8.23;;
70727;SDS011;58314;47.722;17.652;2022-08-24T08:44:33;9.88;;;8.95;;
70727;SDS011;58314;47.722;17.652;2022-08-24T08:54:32;10.70;;;8.68;;
70727;SDS011;58314;47.722;17.652;2022-08-24T09:01:00;9.07;;;8.20;;
70727;SDS011;58314;47.722;17.652;2022-08-24T09:04:23;9.10;;;8.20;;
70727;SDS011;58314;47.722;17.652;2022-08-24T09:27:49;8.73;;;7.93;;
70727;SDS011;58314;47.722;17.652;2022-08-24T10:01:51;8.63;;;7.82;;
70727;SDS011;58314;47.722;17.652;2022-08-24T10:11:57;9.32;;;8.43;;
70727;SDS011;58314;47.722;17.652;2022-08-24T10:28:37;10.32;;;8.00;;
70727;SDS011;58314;47.722;17.652;2022-08-24T10:35:27;9.00;;;8.18;;
70727;SDS011;58314;47.722;17.652;2022-08-24T10:46:19;9.80;;;8.85;;
70727;SDS011;58314;47.722;17.652;2022-08-24T10:55:44;8.98;;;8.18;;
70727;SDS011;58314;47.722;17.652;2022-08-24T10:58:49;11.35;;;9.35;;
70727;SDS011;58314;47.722;17.652;2022-08-24T11:02:01;9.63;;;8.68;;
70727;SDS011;58314;47.722;17.652;2022-08-24T11:05:26;10.70;;;9.27;;
70727;SDS011;58314;47.722;17.652;2022-08-24T11:08:29;15.25;;;13.75;;
70727;SDS011;58314;47.722;17.652;2022-08-24T11:14:36;11.68;;;10.55;;
70727;SDS011;58314;47.722;17.652;2022-08-24T11:17:38;11.50;;;10.45;;
70727;SDS011;58314;47.722;17.652;2022-08-24T11:20:54;10.73;;;9.73;;
70727;SDS011;58314;47.722;17.652;2022-08-24T11:23:55;10.88;;;9.77;;
70727;SDS011;58314;47.722;17.652;2022-08-24T11:27:04;12.20;;;11.00;;
70727;SDS011;58314;47.722;17.652;2022-08-24T11:30:12;11.38;;;10.38;;
70727;SDS011;58314;47.722;17.652;2022-08-24T11:36:46;11.27;;;10.18;;
70727;SDS011;58314;47.722;17.652;2022-08-24T11:39:46;10.75;;;9.63;;
70727;SDS011;58314;47.722;17.652;2022-08-24T11:55:56;10.88;;;9.82;;
70727;SDS011;58314;47.722;17.652;2022-08-24T11:59:14;11.00;;;9.90;;
70727;SDS011;58314;47.722;17.652;2022-08-24T12:02:30;10.05;;;9.18;;
70727;SDS011;58314;47.722;17.652;2022-08-24T12:08:44;11.02;;;9.77;;
70727;SDS011;58314;47.722;17.652;2022-08-24T12:12:09;10.40;;;9.40;;
70727;SDS011;58314;47.722;17.652;2022-08-24T12:15:39;9.57;;;8.77;;
70727;SDS011;58314;47.722;17.652;2022-08-24T12:18:59;9.43;;;8.53;;
70727;SDS011;58314;47.722;17.652;2022-08-24T12:22:05;9.55;;;8.65;;
70727;SDS011;58314;47.722;17.652;2022-08-24T12:25:08;11.02;;;8.68;;
70727;SDS011;58314;47.722;17.652;2022-08-24T12:28:33;8.35;;;7.40;;
70727;SDS011;58314;47.722;17.652;2022-08-24T12:32:00;8.90;;;7.57;;
70727;SDS011;58314;47.722;17.652;2022-08-24T12:38:34;6.75;;;6.13;;
70727;SDS011;58314;47.722;17.652;2022-08-24T12:42:24;8.15;;;7.32;;
70727;SDS011;58314;47.722;17.652;2022-08-24T12:45:19;7.00;;;6.40;;
70727;SDS011;58314;47.722;17.652;2022-08-24T12:48:22;8.30;;;7.53;;
70727;SDS011;58314;47.722;17.652;2022-08-24T12:55:04;7.10;;;6.40;;
70727;SDS011;58314;47.722;17.652;2022-08-24T13:01:56;7.05;;;6.30;;
70727;SDS011;58314;47.722;17.652;2022-08-24T13:04:58;6.72;;;6.22;;
70727;SDS011;58314;47.722;17.652;2022-08-24T13:08:10;7.20;;;6.50;;
70727;SDS011;58314;47.722;17.652;2022-08-24T13:11:28;6.82;;;6.25;;
70727;SDS011;58314;47.722;17.652;2022-08-24T13:14:31;7.22;;;6.47;;
70727;SDS011;58314;47.722;17.652;2022-08-24T13:17:39;6.70;;;6.10;;
70727;SDS011;58314;47.722;17.652;2022-08-24T13:23:44;7.10;;;6.40;;
70727;SDS011;58314;47.722;17.652;2022-08-24T13:26:44;6.55;;;5.95;;
70727;SDS011;58314;47.722;17.652;2022-08-24T13:30:07;6.10;;;5.50;;
70727;SDS011;58314;47.722;17.652;2022-08-24T13:33:17;7.20;;;6.38;;
70727;SDS011;58314;47.722;17.652;2022-08-24T13:39:54;6.15;;;5.60;;
70727;SDS011;58314;47.722;17.652;2022-08-24T13:53:10;7.03;;;6.40;;
70727;SDS011;58314;47.722;17.652;2022-08-24T14:03:11;7.95;;;6.95;;
70727;SDS011;58314;47.722;17.652;2022-08-24T14:13:02;8.60;;;7.80;;
70727;SDS011;58314;47.722;17.652;2022-08-24T14:26:53;9.50;;;8.60;;
70727;SDS011;58314;47.722;17.652;2022-08-24T14:33:21;9.68;;;8.05;;
70727;SDS011;58314;47.722;17.652;2022-08-24T14:36:51;8.48;;;7.63;;
70727;SDS011;58314;47.722;17.652;2022-08-24T14:47:05;8.20;;;7.40;;
70727;SDS011;58314;47.722;17.652;2022-08-24T14:50:18;8.70;;;7.80;;
70727;SDS011;58314;47.722;17.652;2022-08-24T15:00:14;8.35;;;7.55;;
70727;SDS011;58314;47.722;17.652;2022-08-24T15:06:53;8.82;;;8.02;;
70727;SDS011;58314;47.722;17.652;2022-08-24T15:09:59;9.05;;;8.15;;
70727;SDS011;58314;47.722;17.652;2022-08-24T15:13:03;8.95;;;8.05;;
70727;SDS011;58314;47.722;17.652;2022-08-24T15:16:12;13.75;;;12.45;;
70727;SDS011;58314;47.722;17.652;2022-08-24T15:19:29;10.52;;;9.55;;
70727;SDS011;58314;47.722;17.652;2022-08-24T15:22:40;9.50;;;8.57;;
70727;SDS011;58314;47.722;17.652;2022-08-24T15:29:31;9.30;;;8.40;;
70727;SDS011;58314;47.722;17.652;2022-08-24T15:32:44;10.50;;;9.50;;
70727;SDS011;58314;47.722;17.652;2022-08-24T15:36:02;11.32;;;9.02;;
70727;SDS011;58314;47.722;17.652;2022-08-24T15:39:23;9.95;;;9.05;;
70727;SDS011;58314;47.722;17.652;2022-08-24T15:42:27;10.23;;;9.23;;
70727;SDS011;58314;47.722;17.652;2022-08-24T15:45:30;9.90;;;8.90;;
70727;SDS011;58314;47.722;17.652;2022-08-24T15:48:32;9.85;;;8.77;;
70727;SDS011;58314;47.722;17.652;2022-08-24T15:51:42;10.40;;;8.70;;
70727;SDS011;58314;47.722;17.652;2022-08-24T15:54:57;10.30;;;9.20;;
70727;SDS011;58314;47.722;17.652;2022-08-24T16:01:29;9.82;;;8.93;;
70727;SDS011;58314;47.722;17.652;2022-08-24T16:04:49;9.82;;;8.82;;
70727;SDS011;58314;47.722;17.652;2022-08-24T16:11:18;10.48;;;9.48;;
70727;SDS011;58314;47.722;17.652;2022-08-24T16:14:26;10.00;;;9.10;;
70727;SDS011;58314;47.722;17.652;2022-08-24T16:17:39;10.35;;;9.35;;
70727;SDS011;58314;47.722;17.652;2022-08-24T16:20:50;10.18;;;9.15;;
70727;SDS011;58314;47.722;17.652;2022-08-24T16:23:53;10.27;;;9.27;;
70727;SDS011;58314;47.722;17.652;2022-08-24T16:27:15;10.05;;;9.05;;
70727;SDS011;58314;47.722;17.652;2022-08-24T16:33:52;10.70;;;9.70;;
70727;SDS011;58314;47.722;17.652;2022-08-24T16:37:12;26.80;;;24.60;;
70727;SDS011;58314;47.722;17.652;2022-08-24T16:40:17;12.55;;;11.32;;
70727;SDS011;58314;47.722;17.652;2022-08-24T16:43:18;12.07;;;10.80;;
70727;SDS011;58314;47.722;17.652;2022-08-24T16:46:20;10.25;;;9.30;;
70727;SDS011;58314;47.722;17.652;2022-08-24T16:49:22;12.38;;;10.23;;
70727;SDS011;58314;47.722;17.652;2022-08-24T16:52:24;10.55;;;9.45;;
70727;SDS011;58314;47.722;17.652;2022-08-24T16:55:24;11.43;;;10.32;;
70727;SDS011;58314;47.722;17.652;2022-08-24T16:58:29;11.98;;;10.77;;
70727;SDS011;58314;47.722;17.652;2022-08-24T17:01:32;11.73;;;10.63;;
70727;SDS011;58314;47.722;17.652;2022-08-24T17:04:32;11.70;;;10.60;;
70727;SDS011;58314;47.722;17.652;2022-08-24T17:07:33;11.00;;;9.90;;
70727;SDS011;58314;47.722;17.652;2022-08-24T17:10:34;12.57;;;11.05;;
70727;SDS011;58314;47.722;17.652;2022-08-24T17:13:34;11.10;;;10.00;;
70727;SDS011;58314;47.722;17.652;2022-08-24T17:16:35;12.38;;;10.77;;
70727;SDS011;58314;47.722;17.652;2022-08-24T17:19:36;11.80;;;10.60;;
70727;SDS011;58314;47.722;17.652;2022-08-24T17:22:37;12.52;;;11.35;;
70727;SDS011;58314;47.722;17.652;2022-08-24T17:25:38;12.48;;;11.20;;
70727;SDS011;58314;47.722;17.652;2022-08-24T17:28:42;12.55;;;11.25;;
70727;SDS011;58314;47.722;17.652;2022-08-24T17:31:46;12.65;;;11.38;;
70727;SDS011;58314;47.722;17.652;2022-08-24T17:34:51;12.63;;;11.40;;
70727;SDS011;58314;47.722;17.652;2022-08-24T17:37:51;11.85;;;10.65;;
70727;SDS011;58314;47.722;17.652;2022-08-24T17:40:53;12.15;;;10.90;;
70727;SDS011;58314;47.722;17.652;2022-08-24T17:43:53;12.50;;;11.20;;
70727;SDS011;58314;47.722;17.652;2022-08-24T17:46:55;12.20;;;10.77;;
70727;SDS011;58314;47.722;17.652;2022-08-24T17:49:58;11.70;;;10.50;;
70727;SDS011;58314;47.722;17.652;2022-08-24T17:53:00;12.50;;;11.20;;
70727;SDS011;58314;47.722;17.652;2022-08-24T17:56:03;12.52;;;11.23;;
70727;SDS011;58314;47.722;17.652;2022-08-24T17:59:08;10.07;;;8.98;;
70727;SDS011;58314;47.722;17.652;2022-08-24T18:02:19;9.70;;;7.50;;
70727;SDS011;58314;47.722;17.652;2022-08-24T18:05:19;7.95;;;5.95;;
70727;SDS011;58314;47.722;17.652;2022-08-24T18:08:21;9.40;;;5.68;;
70727;SDS011;58314;47.722;17.652;2022-08-24T18:11:22;8.63;;;5.90;;
70727;SDS011;58314;47.722;17.652;2022-08-24T18:14:23;7.55;;;6.03;;
70727;SDS011;58314;47.722;17.652;2022-08-24T18:17:30;8.20;;;6.15;;
70727;SDS011;58314;47.722;17.652;2022-08-24T18:20:36;13.10;;;6.60;;
70727;SDS011;58314;47.722;17.652;2022-08-24T18:23:39;13.68;;;12.25;;
70727;SDS011;58314;47.722;17.652;2022-08-24T18:26:40;11.35;;;8.60;;
70727;SDS011;58314;47.722;17.652;2022-08-24T18:29:41;12.40;;;8.18;;
70727;SDS011;58314;47.722;17.652;2022-08-24T18:32:42;11.15;;;7.95;;
70727;SDS011;58314;47.722;17.652;2022-08-24T18:35:43;13.93;;;7.72;;
70727;SDS011;58314;47.722;17.652;2022-08-24T18:38:45;13.18;;;7.72;;
70727;SDS011;58314;47.722;17.652;2022-08-24T18:41:46;10.38;;;7.15;;
70727;SDS011;58314;47.722;17.652;2022-08-24T18:44:47;11.70;;;7.53;;
70727;SDS011;58314;47.722;17.652;2022-08-24T18:47:48;10.90;;;5.70;;
70727;SDS011;58314;47.722;17.652;2022-08-24T18:50:49;9.15;;;5.50;;
70727;SDS011;58314;47.722;17.652;2022-08-24T18:53:51;7.38;;;5.00;;
70727;SDS011;58314;47.722;17.652;2022-08-24T18:56:59;9.60;;;5.90;;
70727;SDS011;58314;47.722;17.652;2022-08-24T19:00:00;8.38;;;5.10;;
70727;SDS011;58314;47.722;17.652;2022-08-24T19:03:03;9.68;;;4.88;;
70727;SDS011;58314;47.722;17.652;2022-08-24T19:06:06;8.68;;;4.43;;
70727;SDS011;58314;47.722;17.652;2022-08-24T19:09:06;8.15;;;4.65;;
70727;SDS011;58314;47.722;17.652;2022-08-24T19:12:07;9.02;;;4.47;;
70727;SDS011;58314;47.722;17.652;2022-08-24T19:15:09;7.90;;;4.20;;
70727;SDS011;58314;47.722;17.652;2022-08-24T19:18:10;7.03;;;4.38;;
70727;SDS011;58314;47.722;17.652;2022-08-24T19:21:12;6.32;;;4.07;;
70727;SDS011;58314;47.722;17.652;2022-08-24T19:24:13;6.03;;;4.00;;
70727;SDS011;58314;47.722;17.652;2022-08-24T19:27:21;8.07;;;4.63;;
70727;SDS011;58314;47.722;17.652;2022-08-24T19:30:24;6.63;;;4.63;;
70727;SDS011;58314;47.722;17.652;2022-08-24T19:33:28;7.22;;;4.45;;
70727;SDS011;58314;47.722;17.652;2022-08-24T19:36:33;8.73;;;5.32;;
70727;SDS011;58314;47.722;17.652;2022-08-24T19:39:34;8.38;;;5.15;;
70727;SDS011;58314;47.722;17.652;2022-08-24T19:42:34;14.93;;;10.50;;
70727;SDS011;58314;47.722;17.652;2022-08-24T19:45:35;11.93;;;6.45;;
70727;SDS011;58314;47.722;17.652;2022-08-24T19:48:54;8.65;;;5.60;;
70727;SDS011;58314;47.722;17.652;2022-08-24T19:51:55;8.35;;;5.72;;
70727;SDS011;58314;47.722;17.652;2022-08-24T19:54:56;9.00;;;5.47;;
70727;SDS011;58314;47.722;17.652;2022-08-24T20:01:30;8.05;;;5.30;;
70727;SDS011;58314;47.722;17.652;2022-08-24T20:04:33;8.00;;;4.95;;
70727;SDS011;58314;47.722;17.652;2022-08-24T20:07:34;10.80;;;5.78;;
70727;SDS011;58314;47.722;17.652;2022-08-24T20:10:35;9.23;;;5.97;;
70727;SDS011;58314;47.722;17.652;2022-08-24T20:13:36;8.93;;;5.50;;
70727;SDS011;58314;47.722;17.652;2022-08-24T20:16:38;8.38;;;5.10;;
70727;SDS011;58314;47.722;17.652;2022-08-24T20:19:43;7.70;;;5.68;;
70727;SDS011;58314;47.722;17.652;2022-08-24T20:22:44;8.30;;;5.57;;
70727;SDS011;58314;47.722;17.652;2022-08-24T20:25:45;8.02;;;6.10;;
70727;SDS011;58314;47.722;17.652;2022-08-24T20:28:47;7.25;;;5.32;;
70727;SDS011;58314;47.722;17.652;2022-08-24T20:31:49;7.85;;;5.45;;
70727;SDS011;58314;47.722;17.652;2022-08-24T20:34:54;8.80;;;6.20;;
70727;SDS011;58314;47.722;17.652;2022-08-24T20:37:55;9.07;;;6.50;;
70727;SDS011;58314;47.722;17.652;2022-08-24T20:40:56;9.73;;;5.75;;
70727;SDS011;58314;47.722;17.652;2022-08-24T20:43:57;8.00;;;5.60;;
70727;SDS011;58314;47.722;17.652;2022-08-24T20:46:58;10.07;;;6.18;;
70727;SDS011;58314;47.722;17.652;2022-08-24T20:50:00;8.10;;;6.20;;
70727;SDS011;58314;47.722;17.652;2022-08-24T20:53:01;8.73;;;5.90;;
70727;SDS011;58314;47.722;17.652;2022-08-24T20:56:02;10.27;;;6.38;;
70727;SDS011;58314;47.722;17.652;2022-08-24T20:59:08;9.35;;;6.32;;
70727;SDS011;58314;47.722;17.652;2022-08-24T21:02:10;8.50;;;6.03;;
70727;SDS011;58314;47.722;17.652;2022-08-24T21:05:11;10.43;;;7.70;;
70727;SDS011;58314;47.722;17.652;2022-08-24T21:08:12;8.77;;;6.18;;
70727;SDS011;58314;47.722;17.652;2022-08-24T21:11:14;7.40;;;6.00;;
70727;SDS011;58314;47.722;17.652;2022-08-24T21:14:14;9.18;;;6.18;;
70727;SDS011;58314;47.722;17.652;2022-08-24T21:17:15;7.68;;;5.68;;
70727;SDS011;58314;47.722;17.652;2022-08-24T21:20:16;9.63;;;8.35;;
70727;SDS011;58314;47.722;17.652;2022-08-24T21:23:18;8.27;;;5.82;;
70727;SDS011;58314;47.722;17.652;2022-08-24T21:26:19;8.10;;;5.72;;
70727;SDS011;58314;47.722;17.652;2022-08-24T21:29:24;10.05;;;5.70;;
70727;SDS011;58314;47.722;17.652;2022-08-24T21:32:24;7.55;;;5.90;;
70727;SDS011;58314;47.722;17.652;2022-08-24T21:35:43;7.28;;;5.65;;